Time;durP1;ratioP1;P1;durP2;ratioP2;P2;SDS_P1;SDS_P2;PMS_P1;PMS_P2;Temp;Humidity;BMP_temperature;BMP_pressure;BME280_temperature;BME280_humidity;BME280_pressure;Samples;Min_cycle;Max_cycle;Signal;HPM_P1;HPM_P2
2022/07/31 00:01:17;;;;;;;1.55;1.20;;;23.70;99.90;;;;;;4230292;28;20617;-80
2022/07/31 00:03:19;;;;;;;2.05;1.25;;;23.70;99.90;;;;;;4230036;28;20210;-80
2022/07/31 00:05:22;;;;;;;1.30;1.10;;;23.70;99.90;;;;;;4229674;28;20225;-80
2022/07/31 00:07:24;;;;;;;1.55;1.10;;;23.70;99.90;;;;;;4229561;28;20799;-80
2022/07/31 00:09:29;;;;;;;1.30;1.20;;;23.70;99.90;;;;;;4229905;28;20217;-80
2022/07/31 00:11:31;;;;;;;2.15;1.25;;;23.70;99.90;;;;;;4229393;28;20286;-80
2022/07/31 00:13:33;;;;;;;1.85;1.40;;;23.70;99.90;;;;;;4230027;28;20213;-79
2022/07/31 00:15:36;;;;;;;1.25;1.15;;;23.70;99.90;;;;;;4230083;28;20722;-79
2022/07/31 00:17:39;;;;;;;1.70;1.20;;;23.70;99.90;;;;;;4229788;28;20239;-80
2022/07/31 00:19:41;;;;;;;1.60;1.35;;;23.70;99.90;;;;;;4229805;28;20261;-80
2022/07/31 00:21:45;;;;;;;3.08;1.10;;;23.70;99.90;;;;;;4229509;28;20217;-79
2022/07/31 00:23:47;;;;;;;1.75;1.40;;;23.70;99.90;;;;;;4229568;28;20727;-80
2022/07/31 00:25:51;;;;;;;2.08;1.42;;;23.70;99.90;;;;;;4229805;28;20267;-80
2022/07/31 00:27:53;;;;;;;1.33;1.05;;;23.60;99.90;;;;;;4229558;28;20241;-80
2022/07/31 00:29:55;;;;;;;2.53;1.60;;;23.60;99.90;;;;;;4229786;28;20206;-80
2022/07/31 00:31:58;;;;;;;2.03;1.10;;;23.70;99.90;;;;;;4229476;28;20217;-79
2022/07/31 00:34:00;;;;;;;1.70;1.38;;;23.70;99.90;;;;;;4229665;28;20221;-79
2022/07/31 00:36:02;;;;;;;2.58;1.30;;;23.70;99.90;;;;;;4229460;28;20262;-79
2022/07/31 00:38:05;;;;;;;1.48;1.23;;;23.60;99.90;;;;;;4229404;28;20263;-80
2022/07/31 00:40:09;;;;;;;1.55;1.45;;;23.70;99.90;;;;;;4230134;28;20222;-80
2022/07/31 00:42:18;;;;;;;1.80;1.40;;;23.70;99.90;;;;;;4229840;28;20213;-80
2022/07/31 00:44:21;;;;;;;2.15;1.30;;;23.60;99.90;;;;;;4229781;28;20224;-80
2022/07/31 00:46:23;;;;;;;1.95;1.35;;;23.60;99.90;;;;;;4229518;28;20214;-80
2022/07/31 00:48:26;;;;;;;1.15;1.05;;;23.60;99.90;;;;;;4229591;28;20217;-79
2022/07/31 00:50:28;;;;;;;1.65;1.33;;;23.60;99.90;;;;;;4229677;28;20240;-80
2022/07/31 00:52:30;;;;;;;2.53;1.30;;;23.60;99.90;;;;;;4229470;28;20217;-79
2022/07/31 00:54:33;;;;;;;1.52;1.20;;;23.60;99.90;;;;;;4229566;28;20217;-79
2022/07/31 00:56:36;;;;;;;2.35;1.42;;;23.60;99.90;;;;;;4231162;28;20665;-80
2022/07/31 00:58:40;;;;;;;1.45;1.35;;;23.60;99.90;;;;;;4233260;28;20213;-80
2022/07/31 01:00:42;;;;;;;1.40;1.27;;;23.60;99.90;;;;;;4232933;28;20727;-80
2022/07/31 01:02:44;;;;;;;1.63;1.10;;;23.60;99.90;;;;;;4233027;28;20594;-80
2022/07/31 01:04:47;;;;;;;2.15;1.48;;;23.60;99.90;;;;;;4232735;28;20222;-80
2022/07/31 01:06:49;;;;;;;1.35;1.20;;;23.60;99.90;;;;;;4232411;28;20237;-80
2022/07/31 01:08:51;;;;;;;1.60;1.33;;;23.60;99.90;;;;;;4232475;28;20263;-80
2022/07/31 01:10:58;;;;;;;1.50;1.40;;;23.60;99.90;;;;;;4232917;28;20214;-80
2022/07/31 01:13:08;;;;;;;1.30;1.10;;;23.60;99.90;;;;;;4232906;28;20266;-80
2022/07/31 01:15:14;;;;;;;2.42;1.30;;;23.60;99.90;;;;;;4232610;28;20268;-80
2022/07/31 01:17:17;;;;;;;1.83;1.20;;;23.60;99.90;;;;;;4232178;28;20608;-80
2022/07/31 01:19:26;;;;;;;3.15;1.35;;;23.60;99.90;;;;;;4232719;28;20218;-80
2022/07/31 01:21:35;;;;;;;2.17;1.35;;;23.60;99.90;;;;;;4232212;28;20213;-80
2022/07/31 01:23:56;;;;;;;2.00;1.23;;;23.60;99.90;;;;;;4232312;28;20213;-80
2022/07/31 01:26:09;;;;;;;1.70;1.30;;;23.50;99.90;;;;;;4232090;28;20609;-80
2022/07/31 01:28:23;;;;;;;2.05;1.50;;;23.50;99.90;;;;;;4231928;28;20274;-80
2022/07/31 01:30:32;;;;;;;1.83;1.30;;;23.50;99.90;;;;;;4232552;28;20258;-80
2022/07/31 01:32:37;;;;;;;1.73;1.30;;;23.50;99.90;;;;;;4232458;28;20217;-80
2022/07/31 01:34:44;;;;;;;1.70;1.30;;;23.50;99.90;;;;;;4232309;28;20209;-80
2022/07/31 01:36:53;;;;;;;1.58;1.30;;;23.50;99.90;;;;;;4232195;28;20217;-80
2022/07/31 01:38:56;;;;;;;2.03;1.38;;;23.60;99.90;;;;;;4232653;28;20638;-80
2022/07/31 01:41:04;;;;;;;1.40;1.27;;;23.50;99.90;;;;;;4232220;28;20218;-80
2022/07/31 01:43:11;;;;;;;2.00;1.38;;;23.50;99.90;;;;;;4231994;28;20236;-80
2022/07/31 01:45:15;;;;;;;2.25;1.40;;;23.50;99.90;;;;;;4232286;28;20802;-80
2022/07/31 01:47:21;;;;;;;1.85;1.30;;;23.50;99.90;;;;;;4232220;28;20746;-80
2022/07/31 01:49:24;;;;;;;2.08;1.60;;;23.50;99.90;;;;;;4232009;28;20217;-80
2022/07/31 01:51:28;;;;;;;1.48;1.10;;;23.50;99.90;;;;;;4231866;28;20267;-80
2022/07/31 01:53:31;;;;;;;1.88;1.20;;;23.60;99.90;;;;;;4231694;28;20214;-80
2022/07/31 01:55:34;;;;;;;1.58;1.30;;;23.50;99.90;;;;;;4231677;28;20217;-80
2022/07/31 01:57:38;;;;;;;1.35;1.13;;;23.50;99.90;;;;;;4231883;28;20608;-80
2022/07/31 01:59:42;;;;;;;1.27;1.05;;;23.50;99.90;;;;;;4231635;28;20213;-80
2022/07/31 02:01:45;;;;;;;1.33;1.20;;;23.50;99.90;;;;;;4231426;28;20218;-80
2022/07/31 02:03:50;;;;;;;1.45;1.30;;;23.50;99.90;;;;;;4231801;28;20283;-80
2022/07/31 02:05:54;;;;;;;2.15;1.20;;;23.50;99.90;;;;;;4232290;28;20213;-80
2022/07/31 02:07:57;;;;;;;3.28;1.42;;;23.50;99.90;;;;;;4230163;28;20302;-80
2022/07/31 02:09:59;;;;;;;1.63;1.45;;;23.50;99.90;;;;;;4231755;28;20726;-80
2022/07/31 02:12:03;;;;;;;1.90;1.40;;;23.50;99.90;;;;;;4231335;28;20214;-80
2022/07/31 02:14:06;;;;;;;1.20;1.10;;;23.50;99.90;;;;;;4231740;28;20217;-80
2022/07/31 02:16:08;;;;;;;3.97;1.38;;;23.50;99.90;;;;;;4231406;28;20263;-80
2022/07/31 02:18:12;;;;;;;2.35;1.30;;;23.50;99.90;;;;;;4231609;28;20214;-80
2022/07/31 02:20:16;;;;;;;1.38;1.27;;;23.50;99.90;;;;;;4231844;28;20218;-80
2022/07/31 02:22:19;;;;;;;1.30;1.20;;;23.50;99.90;;;;;;4231660;28;20597;-80
2022/07/31 02:24:21;;;;;;;2.40;1.30;;;23.40;99.90;;;;;;4231434;28;20218;-80
2022/07/31 02:26:25;;;;;;;1.55;1.42;;;23.40;99.90;;;;;;4231232;28;20275;-80
2022/07/31 02:28:29;;;;;;;1.30;1.20;;;23.40;99.90;;;;;;4231453;28;20758;-80
2022/07/31 02:30:32;;;;;;;1.10;1.00;;;23.50;99.90;;;;;;4231245;28;20551;-80
2022/07/31 02:32:36;;;;;;;1.80;1.42;;;23.40;99.90;;;;;;4231092;28;20218;-80
2022/07/31 02:34:39;;;;;;;1.27;1.17;;;23.40;99.90;;;;;;4231265;28;20217;-80
2022/07/31 02:36:45;;;;;;;2.17;1.20;;;23.40;99.90;;;;;;4231430;28;20267;-80
2022/07/31 02:38:49;;;;;;;1.67;1.20;;;23.50;99.90;;;;;;4231070;28;20267;-80
2022/07/31 02:40:53;;;;;;;1.65;1.40;;;23.40;99.90;;;;;;4231590;28;20218;-80
2022/07/31 02:42:56;;;;;;;1.27;1.17;;;23.40;99.90;;;;;;4230844;28;20633;-80
2022/07/31 02:45:00;;;;;;;2.08;1.25;;;23.40;99.90;;;;;;4231339;28;20209;-80
2022/07/31 02:47:04;;;;;;;1.98;1.38;;;23.40;99.90;;;;;;4230971;28;20214;-80
2022/07/31 02:49:07;;;;;;;1.20;1.10;;;23.40;99.90;;;;;;4230764;28;20275;-80
2022/07/31 02:51:09;;;;;;;1.85;1.27;;;23.40;99.90;;;;;;4231194;28;20213;-80
2022/07/31 02:53:13;;;;;;;1.25;1.15;;;23.40;99.90;;;;;;4230909;28;20621;-80
2022/07/31 02:55:17;;;;;;;2.10;1.40;;;23.40;99.90;;;;;;4231060;28;20214;-80
2022/07/31 02:57:19;;;;;;;1.27;1.10;;;23.40;99.90;;;;;;4230991;28;20740;-80
2022/07/31 02:59:21;;;;;;;1.67;1.30;;;23.40;99.90;;;;;;4231087;28;20218;-80
2022/07/31 03:01:24;;;;;;;1.52;1.23;;;23.40;99.90;;;;;;4230841;28;20266;-80
2022/07/31 03:03:26;;;;;;;1.65;1.10;;;23.40;99.90;;;;;;4231172;28;20206;-80
2022/07/31 03:05:30;;;;;;;1.80;1.20;;;23.40;99.90;;;;;;4230971;28;20218;-80
2022/07/31 03:07:32;;;;;;;1.67;1.25;;;23.40;99.90;;;;;;4230440;28;20214;-80
2022/07/31 03:09:36;;;;;;;1.73;1.30;;;23.40;99.90;;;;;;4231073;28;20221;-80
2022/07/31 03:11:38;;;;;;;1.67;1.20;;;23.40;99.90;;;;;;4230743;28;20244;-80
2022/07/31 03:13:43;;;;;;;1.33;1.00;;;23.40;99.90;;;;;;4230675;28;20255;-80
2022/07/31 03:15:46;;;;;;;2.45;1.30;;;23.40;99.90;;;;;;4230510;28;20218;-80
2022/07/31 03:17:50;;;;;;;1.55;1.20;;;23.40;99.90;;;;;;4230392;28;20267;-80
2022/07/31 03:19:53;;;;;;;1.50;1.27;;;23.40;99.90;;;;;;4230170;28;20259;-80
2022/07/31 03:21:56;;;;;;;2.00;1.30;;;23.40;99.90;;;;;;4230464;28;20238;-80
2022/07/31 03:23:59;;;;;;;2.38;1.30;;;23.40;99.90;;;;;;4230291;28;20255;-80
2022/07/31 03:26:03;;;;;;;1.48;1.20;;;23.40;99.90;;;;;;4230500;28;20282;-80
2022/07/31 03:28:05;;;;;;;1.42;1.25;;;23.40;99.90;;;;;;4230508;28;20238;-80
2022/07/31 03:30:17;;;;;;;3.10;1.30;;;23.40;99.90;;;;;;4230148;28;20259;-80
2022/07/31 03:32:19;;;;;;;1.27;1.15;;;23.40;99.90;;;;;;4230673;28;20287;-80
2022/07/31 03:34:21;;;;;;;1.50;1.40;;;23.40;99.90;;;;;;4230530;28;20263;-80
2022/07/31 03:36:25;;;;;;;2.08;1.42;;;23.40;99.90;;;;;;4230398;28;20259;-80
2022/07/31 03:38:27;;;;;;;1.30;1.10;;;23.40;99.90;;;;;;4230138;28;20666;-77
2022/07/31 03:40:29;;;;;;;1.60;1.40;;;23.40;99.90;;;;;;4230426;28;20286;-77
2022/07/31 03:42:33;;;;;;;2.35;1.10;;;23.40;99.90;;;;;;4229840;28;20670;-77
2022/07/31 03:44:36;;;;;;;1.50;1.13;;;23.40;99.90;;;;;;4230390;28;20617;-77
2022/07/31 03:46:39;;;;;;;2.65;1.50;;;23.40;99.90;;;;;;4230322;28;20615;-77
2022/07/31 03:48:42;;;;;;;1.30;1.20;;;23.40;99.90;;;;;;4229839;28;20245;-77
2022/07/31 03:50:45;;;;;;;1.27;1.17;;;23.40;99.90;;;;;;4229871;28;20734;-77
2022/07/31 03:52:47;;;;;;;1.30;1.10;;;23.30;99.90;;;;;;4229908;28;20214;-77
2022/07/31 03:54:50;;;;;;;2.75;1.35;;;23.30;99.90;;;;;;4230079;28;20254;-80
2022/07/31 03:56:54;;;;;;;2.15;1.20;;;23.30;99.90;;;;;;4229665;28;20213;-80
2022/07/31 03:58:58;;;;;;;1.55;1.30;;;23.30;99.90;;;;;;4230003;28;20277;-80
2022/07/31 04:01:01;;;;;;;2.45;1.33;;;23.40;99.90;;;;;;4230291;28;20221;-80
2022/07/31 04:03:07;;;;;;;1.05;1.00;;;23.30;99.90;;;;;;4230415;28;20330;-80
2022/07/31 04:05:10;;;;;;;1.15;1.05;;;23.30;99.90;;;;;;4229944;28;20218;-80
2022/07/31 04:07:12;;;;;;;3.15;1.35;;;23.40;99.90;;;;;;4230197;28;20662;-80
2022/07/31 04:09:14;;;;;;;2.53;1.50;;;23.40;99.90;;;;;;4229569;28;20295;-80
2022/07/31 04:11:17;;;;;;;1.50;1.25;;;23.40;99.90;;;;;;4230042;28;20661;-80
2022/07/31 04:13:20;;;;;;;1.70;1.15;;;23.30;99.90;;;;;;4229698;28;20217;-77
2022/07/31 04:15:24;;;;;;;1.20;1.10;;;23.30;99.90;;;;;;4229995;28;20270;-77
2022/07/31 04:17:26;;;;;;;2.72;1.42;;;23.30;99.90;;;;;;4230198;28;20603;-77
2022/07/31 04:19:29;;;;;;;2.63;1.45;;;23.30;99.90;;;;;;4230012;28;20620;-78
2022/07/31 04:21:32;;;;;;;2.40;1.20;;;23.30;99.90;;;;;;4229942;28;20270;-77
2022/07/31 04:23:34;;;;;;;1.70;1.20;;;23.30;99.90;;;;;;4229419;28;20213;-77
2022/07/31 04:25:36;;;;;;;2.10;1.42;;;23.30;99.90;;;;;;4229772;28;20678;-77
2022/07/31 04:27:39;;;;;;;2.28;1.67;;;23.30;99.90;;;;;;4229761;28;20250;-77
2022/07/31 04:29:41;;;;;;;2.40;1.45;;;23.30;99.90;;;;;;4229543;28;20222;-77
2022/07/31 04:31:45;;;;;;;1.55;1.10;;;23.30;99.90;;;;;;4232019;28;20189;-77
2022/07/31 04:33:47;;;;;;;1.60;1.10;;;23.30;99.90;;;;;;4233084;28;20217;-80
2022/07/31 04:35:50;;;;;;;1.73;1.20;;;23.30;99.90;;;;;;4233269;28;20246;-80
2022/07/31 04:37:52;;;;;;;1.65;1.20;;;23.30;99.90;;;;;;4233104;28;20217;-80
2022/07/31 04:39:54;;;;;;;1.70;1.15;;;23.30;99.90;;;;;;4232968;28;20235;-80
2022/07/31 04:41:57;;;;;;;1.83;1.10;;;23.30;99.90;;;;;;4233270;28;20209;-81
2022/07/31 04:43:59;;;;;;;1.50;1.40;;;23.30;99.90;;;;;;4232796;28;20238;-80
2022/07/31 04:46:01;;;;;;;1.55;1.30;;;23.30;99.90;;;;;;4232381;28;20259;-78
2022/07/31 04:48:06;;;;;;;2.22;1.35;;;23.30;99.90;;;;;;4232766;28;20669;-77
2022/07/31 04:50:09;;;;;;;1.20;1.10;;;23.30;99.90;;;;;;4232619;28;20635;-78
2022/07/31 04:52:11;;;;;;;1.77;1.25;;;23.30;99.90;;;;;;4232639;28;20218;-78
2022/07/31 04:54:13;;;;;;;1.60;1.20;;;23.30;99.90;;;;;;4233145;28;20222;-77
2022/07/31 04:56:36;;;;;;;1.58;1.02;;;23.30;99.90;;;;;;4233062;28;20667;-77
2022/07/31 04:58:38;;;;;;;1.27;1.15;;;23.30;99.90;;;;;;4232617;28;20213;-77
2022/07/31 05:00:40;;;;;;;1.15;1.05;;;23.30;99.90;;;;;;4232658;28;20213;-77
2022/07/31 05:02:43;;;;;;;1.33;1.23;;;23.30;99.90;;;;;;4232776;28;20221;-77
2022/07/31 05:04:46;;;;;;;1.25;1.15;;;23.30;99.90;;;;;;4232588;28;20222;-77
2022/07/31 05:06:51;;;;;;;1.50;1.20;;;23.30;99.90;;;;;;4233101;28;20221;-77
2022/07/31 05:08:53;;;;;;;1.77;1.17;;;23.30;99.90;;;;;;4232558;28;20234;-77
2022/07/31 05:13:15;;;;;;;1.30;1.20;;;23.30;99.90;;;;;;4232900;28;20186;-77
2022/07/31 05:15:18;;;;;;;1.08;0.98;;;23.30;99.90;;;;;;4232446;28;20274;-77
2022/07/31 05:17:20;;;;;;;1.80;1.10;;;23.30;99.90;;;;;;4232396;28;20214;-77
2022/07/31 05:19:28;;;;;;;1.58;1.33;;;23.30;99.90;;;;;;4232366;28;20544;-77
2022/07/31 05:21:32;;;;;;;1.60;1.23;;;23.30;99.90;;;;;;4232719;28;20213;-77
2022/07/31 05:23:34;;;;;;;2.00;1.30;;;23.30;99.90;;;;;;4232549;28;20255;-77
2022/07/31 05:25:36;;;;;;;1.42;1.17;;;23.30;99.90;;;;;;4232202;28;20619;-77
2022/07/31 05:27:39;;;;;;;2.33;1.30;;;23.30;99.90;;;;;;4232199;28;20262;-77
2022/07/31 05:29:41;;;;;;;2.05;1.10;;;23.30;99.90;;;;;;4231829;28;20222;-77
2022/07/31 05:31:44;;;;;;;1.75;1.20;;;23.30;99.90;;;;;;4232261;28;20210;-77
2022/07/31 05:33:48;;;;;;;2.00;1.38;;;23.30;99.90;;;;;;4232300;28;20282;-77
2022/07/31 05:35:50;;;;;;;1.25;1.15;;;23.30;99.90;;;;;;4232437;28;20217;-77
2022/07/31 05:37:54;;;;;;;1.48;1.30;;;23.30;99.90;;;;;;4232062;28;20267;-77
2022/07/31 05:39:56;;;;;;;1.33;1.10;;;23.30;99.90;;;;;;4232135;28;20267;-77
2022/07/31 05:41:59;;;;;;;2.88;1.35;;;23.30;99.90;;;;;;4231993;28;20668;-77
2022/07/31 05:44:01;;;;;;;1.83;1.40;;;23.30;99.90;;;;;;4231594;28;20709;-77
2022/07/31 05:46:04;;;;;;;1.63;1.27;;;23.30;99.90;;;;;;4231959;28;20214;-77
2022/07/31 05:48:07;;;;;;;1.27;1.13;;;23.30;99.90;;;;;;4232019;28;20262;-77
2022/07/31 05:50:09;;;;;;;4.38;1.35;;;23.30;99.90;;;;;;4231893;28;20230;-77
2022/07/31 05:52:12;;;;;;;1.30;1.20;;;23.30;99.90;;;;;;4232132;28;20217;-77
2022/07/31 05:54:16;;;;;;;2.03;1.60;;;23.30;99.90;;;;;;4231941;28;20222;-77
2022/07/31 05:56:18;;;;;;;1.60;1.30;;;23.30;99.90;;;;;;4231736;28;20209;-77
2022/07/31 05:58:20;;;;;;;1.75;1.35;;;23.30;99.90;;;;;;4231987;28;20262;-77
2022/07/31 06:00:23;;;;;;;1.88;1.30;;;23.30;99.90;;;;;;4232068;28;20715;-77
2022/07/31 06:02:25;;;;;;;1.52;1.42;;;23.30;99.90;;;;;;4232115;28;20673;-77
2022/07/31 06:04:28;;;;;;;2.00;1.27;;;23.30;99.90;;;;;;4231834;28;20218;-80
2022/07/31 06:06:30;;;;;;;1.88;1.30;;;23.30;99.90;;;;;;4231655;28;20209;-80
2022/07/31 06:08:32;;;;;;;1.83;1.20;;;23.30;99.90;;;;;;4231907;28;20210;-81
2022/07/31 06:10:36;;;;;;;1.85;1.23;;;23.30;99.90;;;;;;4231289;28;20242;-80
2022/07/31 06:12:39;;;;;;;3.25;1.70;;;23.30;99.90;;;;;;4231809;28;20214;-77
2022/07/31 06:14:41;;;;;;;1.42;1.33;;;23.30;99.90;;;;;;4231615;28;20210;-77
2022/07/31 06:16:44;;;;;;;2.95;1.48;;;23.30;99.90;;;;;;4231853;28;20239;-80
2022/07/31 06:18:46;;;;;;;1.80;1.30;;;23.30;99.90;;;;;;4231541;28;20214;-81
2022/07/31 06:20:48;;;;;;;2.97;1.42;;;23.40;99.90;;;;;;4231285;28;20267;-81
2022/07/31 06:22:51;;;;;;;3.15;1.25;;;23.30;99.90;;;;;;4231308;28;20258;-81
2022/07/31 06:24:53;;;;;;;1.80;1.52;;;23.30;99.90;;;;;;4231508;28;20247;-81
2022/07/31 06:26:58;;;;;;;1.48;1.20;;;23.30;99.90;;;;;;4231582;28;20261;-81
2022/07/31 06:29:00;;;;;;;2.25;1.58;;;23.30;99.90;;;;;;4231552;28;20271;-81
2022/07/31 06:31:03;;;;;;;1.77;1.40;;;23.30;99.90;;;;;;4231246;28;20229;-80
2022/07/31 06:33:06;;;;;;;1.92;1.40;;;23.30;99.90;;;;;;4231275;28;20223;-80
2022/07/31 06:35:09;;;;;;;1.63;1.30;;;23.40;99.90;;;;;;4231094;28;20726;-81
2022/07/31 06:37:11;;;;;;;1.50;1.40;;;23.40;99.90;;;;;;4230940;28;20214;-81
2022/07/31 06:39:14;;;;;;;1.40;1.30;;;23.40;99.90;;;;;;4231524;28;20217;-81
2022/07/31 06:43:33;;;;;;;1.52;1.40;;;23.30;99.90;;;;;;4230505;28;20234;-80
2022/07/31 06:45:36;;;;;;;2.03;1.70;;;23.40;99.90;;;;;;4230992;28;20247;-81
2022/07/31 06:47:38;;;;;;;1.98;1.50;;;23.40;99.90;;;;;;4231135;28;20218;-81
2022/07/31 06:49:40;;;;;;;1.85;1.38;;;23.40;99.90;;;;;;4231324;28;20217;-81
2022/07/31 06:51:43;;;;;;;2.00;1.30;;;23.40;99.90;;;;;;4230776;28;20209;-81
2022/07/31 06:53:45;;;;;;;1.52;1.42;;;23.40;99.90;;;;;;4230177;28;20621;-81
2022/07/31 06:55:48;;;;;;;2.15;1.63;;;23.40;99.90;;;;;;4230741;28;20266;-80
2022/07/31 06:57:50;;;;;;;1.80;1.35;;;23.40;99.90;;;;;;4230751;28;20263;-80
2022/07/31 06:59:53;;;;;;;1.70;1.60;;;23.40;99.90;;;;;;4231060;28;20209;-81
2022/07/31 07:01:56;;;;;;;1.42;1.20;;;23.40;99.90;;;;;;4231167;28;20218;-81
2022/07/31 07:03:58;;;;;;;2.22;1.55;;;23.40;99.90;;;;;;4230822;28;20217;-81
2022/07/31 07:06:02;;;;;;;1.67;1.30;;;23.40;99.90;;;;;;4230618;28;20206;-81
2022/07/31 07:08:05;;;;;;;4.15;1.50;;;23.40;99.90;;;;;;4230970;28;20221;-81
2022/07/31 07:10:08;;;;;;;2.08;1.35;;;23.40;99.90;;;;;;4230287;28;20644;-80
2022/07/31 07:12:10;;;;;;;2.53;1.70;;;23.40;99.90;;;;;;4230472;28;20213;-80
2022/07/31 07:14:12;;;;;;;2.30;1.50;;;23.40;99.90;;;;;;4230832;28;20259;-80
2022/07/31 07:16:16;;;;;;;2.75;1.60;;;23.40;99.90;;;;;;4230743;28;20218;-80
2022/07/31 07:18:20;;;;;;;1.40;1.30;;;23.40;99.90;;;;;;4230591;28;20263;-81
2022/07/31 07:20:23;;;;;;;3.00;1.70;;;23.40;99.90;;;;;;4230376;28;20209;-81
2022/07/31 07:22:26;;;;;;;1.52;1.40;;;23.40;99.90;;;;;;4230242;28;20218;-81
2022/07/31 07:24:28;;;;;;;1.75;1.42;;;23.40;99.90;;;;;;4230247;28;20270;-80
2022/07/31 07:26:31;;;;;;;1.92;1.50;;;23.40;99.90;;;;;;4230304;28;20217;-81
2022/07/31 07:28:34;;;;;;;3.47;1.83;;;23.40;99.90;;;;;;4230627;28;20239;-80
2022/07/31 07:30:36;;;;;;;2.08;1.60;;;23.40;99.90;;;;;;4230508;28;20274;-81
2022/07/31 07:32:40;;;;;;;1.63;1.52;;;23.40;99.90;;;;;;4230132;28;20247;-81
2022/07/31 07:34:42;;;;;;;2.08;1.70;;;23.40;99.90;;;;;;4230287;28;20263;-81
2022/07/31 07:36:44;;;;;;;2.10;1.90;;;23.40;99.90;;;;;;4230251;28;20540;-80
2022/07/31 07:38:47;;;;;;;2.40;1.70;;;23.40;99.90;;;;;;4230411;28;20559;-80
2022/07/31 07:40:49;;;;;;;2.00;1.50;;;23.50;99.90;;;;;;4230388;28;20606;-80
2022/07/31 07:42:51;;;;;;;2.05;1.80;;;23.40;99.90;;;;;;4230225;28;20247;-80
2022/07/31 07:44:54;;;;;;;1.83;1.48;;;23.40;99.90;;;;;;4230271;28;20217;-80
2022/07/31 07:46:56;;;;;;;3.05;1.80;;;23.40;99.90;;;;;;4229915;28;20221;-80
2022/07/31 07:49:00;;;;;;;3.17;1.90;;;23.40;99.90;;;;;;4230269;28;20217;-81
2022/07/31 07:51:02;;;;;;;2.58;1.70;;;23.40;99.90;;;;;;4229802;28;20237;-80
2022/07/31 07:53:04;;;;;;;2.58;1.77;;;23.40;99.90;;;;;;4230367;28;20250;-80
2022/07/31 07:55:08;;;;;;;2.38;1.73;;;23.40;99.90;;;;;;4230004;28;20221;-80
2022/07/31 07:57:14;;;;;;;1.80;1.70;;;23.40;99.90;;;;;;4229787;28;20241;-80
2022/07/31 07:59:16;;;;;;;2.80;1.85;;;23.40;99.90;;;;;;4230022;28;20205;-80
2022/07/31 08:01:19;;;;;;;2.53;1.70;;;23.40;99.90;;;;;;4230014;28;20738;-80
2022/07/31 08:03:21;;;;;;;2.70;2.05;;;23.40;99.90;;;;;;4229814;28;20604;-80
2022/07/31 08:05:25;;;;;;;1.85;1.67;;;23.40;99.90;;;;;;4229631;28;20606;-80
2022/07/31 08:07:28;;;;;;;1.67;1.50;;;23.40;99.90;;;;;;4229897;28;20266;-80
2022/07/31 08:09:31;;;;;;;2.10;1.67;;;23.40;99.90;;;;;;4230169;28;20217;-80
2022/07/31 08:11:33;;;;;;;1.85;1.50;;;23.40;99.90;;;;;;4229909;28;20233;-80
2022/07/31 08:13:36;;;;;;;2.63;1.85;;;23.50;99.90;;;;;;4229504;28;20217;-80
2022/07/31 08:15:38;;;;;;;2.45;1.80;;;23.50;99.90;;;;;;4229580;28;20206;-80
2022/07/31 08:17:40;;;;;;;2.55;2.10;;;23.40;99.90;;;;;;4229506;28;20266;-80
2022/07/31 08:19:42;;;;;;;1.80;1.63;;;23.50;99.90;;;;;;4230057;28;20214;-80
2022/07/31 08:21:46;;;;;;;2.13;1.60;;;23.50;99.90;;;;;;4230053;28;20209;-79
2022/07/31 08:23:48;;;;;;;2.53;1.58;;;23.50;99.90;;;;;;4230091;28;20273;-77
2022/07/31 08:25:51;;;;;;;2.22;2.03;;;23.50;99.90;;;;;;4229690;28;20218;-77
2022/07/31 08:27:53;;;;;;;2.53;1.42;;;23.50;99.90;;;;;;4229530;28;20377;-77
2022/07/31 08:29:57;;;;;;;2.45;1.80;;;23.50;99.90;;;;;;4229703;28;20266;-77
2022/07/31 08:32:00;;;;;;;1.95;1.70;;;23.50;99.90;;;;;;4229356;28;20233;-77
2022/07/31 08:34:02;;;;;;;2.25;1.80;;;23.50;99.90;;;;;;4229720;28;20213;-77
2022/07/31 08:36:07;;;;;;;1.70;1.60;;;23.50;99.90;;;;;;4229792;28;20290;-77
2022/07/31 08:38:11;;;;;;;1.70;1.48;;;23.60;99.90;;;;;;4229978;28;20622;-78
2022/07/31 08:40:13;;;;;;;2.25;1.85;;;23.50;99.90;;;;;;4229204;28;20611;-78
2022/07/31 08:42:16;;;;;;;3.00;1.88;;;23.60;99.90;;;;;;4229604;28;20610;-78
2022/07/31 08:44:19;;;;;;;2.42;1.75;;;23.60;99.90;;;;;;4229436;28;20277;-78
2022/07/31 08:46:22;;;;;;;2.17;1.95;;;23.60;99.90;;;;;;4229612;28;20266;-77
2022/07/31 08:48:27;;;;;;;2.05;1.80;;;23.60;99.90;;;;;;4229250;28;20637;-78
2022/07/31 08:50:30;;;;;;;2.72;1.90;;;23.60;99.90;;;;;;4229435;28;20620;-78
2022/07/31 08:52:34;;;;;;;2.13;1.80;;;23.60;99.90;;;;;;4229452;28;20727;-78
2022/07/31 08:54:43;;;;;;;1.63;1.40;;;23.60;99.90;;;;;;4229634;28;20270;-78
2022/07/31 08:56:51;;;;;;;2.60;1.92;;;23.60;99.90;;;;;;4229591;28;20254;-78
2022/07/31 08:58:55;;;;;;;2.13;1.80;;;23.60;99.90;;;;;;4229520;28;20221;-78
2022/07/31 09:00:58;;;;;;;1.80;1.70;;;23.60;99.90;;;;;;4229895;28;20947;-78
2022/07/31 09:03:00;;;;;;;2.35;1.70;;;23.60;99.90;;;;;;4229610;28;20611;-78
2022/07/31 09:05:03;;;;;;;1.70;1.58;;;23.60;99.90;;;;;;4229460;28;20258;-78
2022/07/31 09:07:10;;;;;;;2.13;1.75;;;23.60;99.90;;;;;;4228925;28;20267;-78
2022/07/31 09:09:12;;;;;;;2.70;1.75;;;23.60;99.90;;;;;;4229576;28;20243;-78
2022/07/31 09:11:17;;;;;;;2.65;1.80;;;23.60;99.90;;;;;;4229464;28;20229;-78
2022/07/31 09:13:19;;;;;;;2.38;1.83;;;23.60;99.90;;;;;;4229509;28;20218;-78
2022/07/31 09:15:24;;;;;;;2.10;1.90;;;23.60;99.90;;;;;;4229161;28;20262;-78
2022/07/31 09:17:34;;;;;;;2.17;1.90;;;23.60;99.90;;;;;;4230808;28;20213;-78
2022/07/31 09:19:37;;;;;;;2.13;1.92;;;23.60;99.90;;;;;;4232291;28;20719;-78
2022/07/31 09:21:41;;;;;;;2.20;1.83;;;23.60;99.90;;;;;;4232297;28;20210;-78
2022/07/31 09:23:46;;;;;;;2.00;1.77;;;23.70;99.90;;;;;;4232471;28;20247;-78
2022/07/31 09:25:53;;;;;;;2.25;2.05;;;23.60;99.90;;;;;;4232509;28;20230;-78
2022/07/31 09:28:01;;;;;;;1.83;1.73;;;23.70;99.90;;;;;;4232575;28;20768;-78
2022/07/31 09:30:05;;;;;;;2.17;1.90;;;23.70;99.90;;;;;;4232382;28;20270;-78
2022/07/31 09:32:08;;;;;;;2.10;1.80;;;23.70;99.90;;;;;;4232521;28;20241;-80
2022/07/31 09:34:10;;;;;;;1.90;1.70;;;23.70;99.90;;;;;;4232236;28;20743;-80
2022/07/31 09:36:13;;;;;;;2.55;1.98;;;23.70;99.90;;;;;;4232514;28;20617;-80
2022/07/31 09:38:16;;;;;;;2.08;1.88;;;23.70;99.90;;;;;;4231940;28;20282;-81
2022/07/31 09:40:18;;;;;;;2.30;2.10;;;23.70;99.90;;;;;;4231961;28;20214;-80
2022/07/31 09:42:21;;;;;;;2.00;1.75;;;23.70;99.90;;;;;;4231969;28;20264;-80
2022/07/31 09:44:34;;;;;;;2.13;1.80;;;23.70;99.90;;;;;;4231941;28;20264;-80
2022/07/31 09:46:40;;;;;;;2.88;1.92;;;23.70;99.90;;;;;;4232100;28;20274;-80
2022/07/31 09:48:50;;;;;;;2.13;1.98;;;23.70;99.90;;;;;;4232293;28;20608;-80
2022/07/31 09:50:53;;;;;;;3.92;1.88;;;23.70;99.90;;;;;;4232097;28;20273;-80
2022/07/31 09:52:58;;;;;;;2.42;2.05;;;23.80;99.90;;;;;;4231728;28;20694;-80
2022/07/31 09:55:02;;;;;;;2.10;1.90;;;23.80;99.90;;;;;;4231801;28;20259;-80
2022/07/31 09:57:11;;;;;;;2.05;1.95;;;23.80;99.90;;;;;;4231760;28;20334;-80
2022/07/31 09:59:13;;;;;;;3.50;2.13;;;23.80;99.90;;;;;;4231979;28;20217;-81
2022/07/31 10:01:18;;;;;;;2.42;2.03;;;23.80;99.90;;;;;;4231808;28;20213;-80
2022/07/31 10:03:20;;;;;;;2.38;2.17;;;23.80;99.90;;;;;;4232074;28;20209;-81
2022/07/31 10:05:25;;;;;;;2.20;2.00;;;23.80;99.90;;;;;;4232083;28;20214;-80
2022/07/31 10:07:34;;;;;;;2.33;2.13;;;23.80;99.90;;;;;;4232256;28;20271;-81
2022/07/31 10:09:40;;;;;;;2.53;2.30;;;23.80;99.90;;;;;;4232067;28;20254;-81
2022/07/31 10:11:44;;;;;;;2.45;2.25;;;23.80;99.90;;;;;;4231548;28;20238;-81
2022/07/31 10:13:48;;;;;;;4.00;2.20;;;23.80;99.90;;;;;;4231927;28;20217;-81
2022/07/31 10:15:53;;;;;;;2.92;2.28;;;23.90;99.90;;;;;;4231638;28;20723;-81
2022/07/31 10:17:57;;;;;;;2.40;2.20;;;23.90;99.90;;;;;;4231628;28;20320;-81
2022/07/31 10:20:04;;;;;;;2.60;1.75;;;23.90;99.90;;;;;;4231521;28;20259;-81
2022/07/31 10:22:08;;;;;;;2.53;2.30;;;23.90;99.90;;;;;;4231870;28;20209;-81
2022/07/31 10:24:12;;;;;;;2.50;2.30;;;23.90;99.90;;;;;;4231385;28;20627;-81
2022/07/31 10:26:14;;;;;;;2.35;2.00;;;23.90;99.90;;;;;;4231333;28;20258;-81
2022/07/31 10:28:17;;;;;;;3.00;2.30;;;23.90;99.90;;;;;;4230338;28;20329;-81
2022/07/31 10:30:20;;;;;;;3.55;2.17;;;23.90;99.90;;;;;;4230997;28;20263;-81
2022/07/31 10:32:22;;;;;;;2.50;2.30;;;23.90;99.90;;;;;;4231302;28;20237;-81
2022/07/31 10:34:27;;;;;;;2.72;2.35;;;23.90;99.90;;;;;;4231510;28;20595;-81
2022/07/31 10:36:34;;;;;;;3.00;2.17;;;23.90;99.90;;;;;;4231361;28;20266;-81
2022/07/31 10:38:43;;;;;;;2.47;2.28;;;23.90;99.90;;;;;;4231376;28;20263;-81
2022/07/31 10:40:52;;;;;;;4.38;2.30;;;23.90;99.90;;;;;;4231342;28;20259;-81
2022/07/31 10:43:12;;;;;;;2.47;2.28;;;23.90;99.90;;;;;;4230948;28;20762;-81
2022/07/31 10:45:15;;;;;;;2.53;2.00;;;23.90;99.90;;;;;;4231386;28;20677;-81
2022/07/31 10:47:18;;;;;;;3.03;2.33;;;23.90;99.90;;;;;;4230902;28;20238;-81
2022/07/31 10:49:40;;;;;;;2.65;2.45;;;23.90;99.90;;;;;;4231011;28;20267;-81